sensor_id;sensor_type;location;lat;lon;timestamp;P1;durP1;ratioP1;P2;durP2;ratioP2
4895;SDS011;2463;49.948;8.472;2022-12-18T00:01:16;115.57;;;14.95;;
4895;SDS011;2463;49.948;8.472;2022-12-18T00:03:45;114.32;;;15.07;;
4895;SDS011;2463;49.948;8.472;2022-12-18T00:06:12;110.47;;;14.80;;
4895;SDS011;2463;49.948;8.472;2022-12-18T00:08:42;114.43;;;15.10;;
4895;SDS011;2463;49.948;8.472;2022-12-18T00:11:17;109.82;;;13.90;;
4895;SDS011;2463;49.948;8.472;2022-12-18T00:13:45;111.03;;;15.40;;
4895;SDS011;2463;49.948;8.472;2022-12-18T00:16:13;117.30;;;14.70;;
4895;SDS011;2463;49.948;8.472;2022-12-18T00:18:52;113.80;;;13.38;;
4895;SDS011;2463;49.948;8.472;2022-12-18T00:21:21;124.07;;;13.90;;
4895;SDS011;2463;49.948;8.472;2022-12-18T00:23:48;117.07;;;14.38;;
4895;SDS011;2463;49.948;8.472;2022-12-18T00:26:18;111.70;;;13.48;;
4895;SDS011;2463;49.948;8.472;2022-12-18T00:28:47;115.25;;;15.20;;
4895;SDS011;2463;49.948;8.472;2022-12-18T00:31:15;110.95;;;14.50;;
4895;SDS011;2463;49.948;8.472;2022-12-18T00:33:44;117.00;;;15.00;;
4895;SDS011;2463;49.948;8.472;2022-12-18T00:36:12;107.63;;;14.32;;
4895;SDS011;2463;49.948;8.472;2022-12-18T00:38:43;111.70;;;13.00;;
4895;SDS011;2463;49.948;8.472;2022-12-18T00:41:11;111.72;;;13.75;;
4895;SDS011;2463;49.948;8.472;2022-12-18T00:43:39;110.25;;;13.95;;
4895;SDS011;2463;49.948;8.472;2022-12-18T00:46:06;113.07;;;12.88;;
4895;SDS011;2463;49.948;8.472;2022-12-18T00:48:34;107.68;;;12.77;;
4895;SDS011;2463;49.948;8.472;2022-12-18T00:51:01;111.80;;;13.55;;
4895;SDS011;2463;49.948;8.472;2022-12-18T00:53:28;115.45;;;11.98;;
4895;SDS011;2463;49.948;8.472;2022-12-18T00:55:54;108.63;;;13.15;;
4895;SDS011;2463;49.948;8.472;2022-12-18T00:58:21;111.50;;;12.15;;
4895;SDS011;2463;49.948;8.472;2022-12-18T01:00:48;109.03;;;13.57;;
4895;SDS011;2463;49.948;8.472;2022-12-18T01:03:15;116.22;;;14.70;;
4895;SDS011;2463;49.948;8.472;2022-12-18T01:05:42;119.75;;;14.48;;
4895;SDS011;2463;49.948;8.472;2022-12-18T01:08:09;106.05;;;11.90;;
4895;SDS011;2463;49.948;8.472;2022-12-18T01:10:35;112.38;;;13.43;;
4895;SDS011;2463;49.948;8.472;2022-12-18T01:13:02;106.22;;;12.35;;
4895;SDS011;2463;49.948;8.472;2022-12-18T01:15:29;113.18;;;12.98;;
4895;SDS011;2463;49.948;8.472;2022-12-18T01:17:56;108.80;;;12.43;;
4895;SDS011;2463;49.948;8.472;2022-12-18T01:20:22;117.38;;;14.57;;
4895;SDS011;2463;49.948;8.472;2022-12-18T01:22:49;108.65;;;12.65;;
4895;SDS011;2463;49.948;8.472;2022-12-18T01:25:16;110.88;;;12.65;;
4895;SDS011;2463;49.948;8.472;2022-12-18T01:27:42;118.25;;;14.43;;
4895;SDS011;2463;49.948;8.472;2022-12-18T01:30:09;107.10;;;12.13;;
4895;SDS011;2463;49.948;8.472;2022-12-18T01:32:36;105.45;;;13.82;;
4895;SDS011;2463;49.948;8.472;2022-12-18T01:35:03;107.72;;;12.93;;
4895;SDS011;2463;49.948;8.472;2022-12-18T01:37:30;104.90;;;10.95;;
4895;SDS011;2463;49.948;8.472;2022-12-18T01:39:57;106.43;;;11.90;;
4895;SDS011;2463;49.948;8.472;2022-12-18T01:42:24;115.85;;;12.82;;
4895;SDS011;2463;49.948;8.472;2022-12-18T01:44:56;110.78;;;13.40;;
4895;SDS011;2463;49.948;8.472;2022-12-18T01:49:53;109.32;;;11.82;;
4895;SDS011;2463;49.948;8.472;2022-12-18T01:52:21;110.53;;;13.10;;
4895;SDS011;2463;49.948;8.472;2022-12-18T01:54:50;103.55;;;12.10;;
4895;SDS011;2463;49.948;8.472;2022-12-18T01:57:19;109.57;;;12.10;;
4895;SDS011;2463;49.948;8.472;2022-12-18T01:59:47;108.25;;;12.02;;
4895;SDS011;2463;49.948;8.472;2022-12-18T02:02:18;111.88;;;12.32;;
4895;SDS011;2463;49.948;8.472;2022-12-18T02:04:46;107.22;;;11.70;;
4895;SDS011;2463;49.948;8.472;2022-12-18T02:15:41;111.18;;;12.98;;
4895;SDS011;2463;49.948;8.472;2022-12-18T02:18:24;113.72;;;13.73;;
4895;SDS011;2463;49.948;8.472;2022-12-18T02:21:03;114.28;;;12.23;;
4895;SDS011;2463;49.948;8.472;2022-12-18T02:27:17;103.00;;;11.60;;
4895;SDS011;2463;49.948;8.472;2022-12-18T02:29:21;108.60;;;12.10;;
4895;SDS011;2463;49.948;8.472;2022-12-18T02:31:54;112.75;;;12.65;;
4895;SDS011;2463;49.948;8.472;2022-12-18T02:34:27;110.45;;;13.13;;
4895;SDS011;2463;49.948;8.472;2022-12-18T02:36:57;118.15;;;13.35;;
4895;SDS011;2463;49.948;8.472;2022-12-18T02:39:26;104.28;;;10.80;;
4895;SDS011;2463;49.948;8.472;2022-12-18T02:41:56;108.57;;;12.52;;
4895;SDS011;2463;49.948;8.472;2022-12-18T02:44:24;109.53;;;12.02;;
4895;SDS011;2463;49.948;8.472;2022-12-18T02:46:51;104.43;;;11.95;;
4895;SDS011;2463;49.948;8.472;2022-12-18T02:52:14;112.80;;;10.98;;
4895;SDS011;2463;49.948;8.472;2022-12-18T02:57:53;112.60;;;11.88;;
4895;SDS011;2463;49.948;8.472;2022-12-18T03:00:28;109.43;;;11.65;;
4895;SDS011;2463;49.948;8.472;2022-12-18T03:03:06;104.93;;;13.00;;
4895;SDS011;2463;49.948;8.472;2022-12-18T03:05:47;104.63;;;11.40;;
4895;SDS011;2463;49.948;8.472;2022-12-18T03:08:23;108.60;;;12.45;;
4895;SDS011;2463;49.948;8.472;2022-12-18T03:10:55;111.75;;;12.23;;
4895;SDS011;2463;49.948;8.472;2022-12-18T03:13:28;108.32;;;12.50;;
4895;SDS011;2463;49.948;8.472;2022-12-18T03:16:19;107.07;;;13.05;;
4895;SDS011;2463;49.948;8.472;2022-12-18T03:19:03;109.88;;;13.32;;
4895;SDS011;2463;49.948;8.472;2022-12-18T03:21:51;117.28;;;13.15;;
4895;SDS011;2463;49.948;8.472;2022-12-18T03:24:21;106.47;;;10.88;;
4895;SDS011;2463;49.948;8.472;2022-12-18T03:26:53;110.65;;;12.82;;
4895;SDS011;2463;49.948;8.472;2022-12-18T03:32:09;102.57;;;13.25;;
4895;SDS011;2463;49.948;8.472;2022-12-18T03:34:39;105.40;;;13.02;;
4895;SDS011;2463;49.948;8.472;2022-12-18T03:37:08;109.63;;;11.45;;
4895;SDS011;2463;49.948;8.472;2022-12-18T03:39:36;102.07;;;12.43;;
4895;SDS011;2463;49.948;8.472;2022-12-18T03:42:07;113.13;;;14.00;;
4895;SDS011;2463;49.948;8.472;2022-12-18T03:44:48;109.30;;;13.27;;
4895;SDS011;2463;49.948;8.472;2022-12-18T03:47:30;110.78;;;15.65;;
4895;SDS011;2463;49.948;8.472;2022-12-18T03:50:18;109.25;;;14.07;;
4895;SDS011;2463;49.948;8.472;2022-12-18T03:55:40;112.47;;;12.95;;
4895;SDS011;2463;49.948;8.472;2022-12-18T03:58:09;109.35;;;13.02;;
4895;SDS011;2463;49.948;8.472;2022-12-18T04:00:39;106.53;;;13.23;;
4895;SDS011;2463;49.948;8.472;2022-12-18T04:03:07;114.78;;;14.68;;
4895;SDS011;2463;49.948;8.472;2022-12-18T04:05:34;105.72;;;12.68;;
4895;SDS011;2463;49.948;8.472;2022-12-18T04:08:03;106.97;;;13.23;;
4895;SDS011;2463;49.948;8.472;2022-12-18T04:10:31;112.53;;;12.88;;
4895;SDS011;2463;49.948;8.472;2022-12-18T04:12:57;109.10;;;12.95;;
4895;SDS011;2463;49.948;8.472;2022-12-18T04:15:24;116.15;;;13.43;;
4895;SDS011;2463;49.948;8.472;2022-12-18T04:17:51;105.72;;;11.95;;
4895;SDS011;2463;49.948;8.472;2022-12-18T04:20:18;107.03;;;12.27;;
4895;SDS011;2463;49.948;8.472;2022-12-18T04:22:45;110.45;;;13.13;;
4895;SDS011;2463;49.948;8.472;2022-12-18T04:25:13;110.90;;;12.80;;
4895;SDS011;2463;49.948;8.472;2022-12-18T04:27:40;110.82;;;14.50;;
4895;SDS011;2463;49.948;8.472;2022-12-18T04:30:06;109.60;;;13.98;;
4895;SDS011;2463;49.948;8.472;2022-12-18T04:32:34;117.15;;;13.75;;
4895;SDS011;2463;49.948;8.472;2022-12-18T04:35:01;108.63;;;13.93;;
4895;SDS011;2463;49.948;8.472;2022-12-18T04:37:30;112.25;;;14.35;;
4895;SDS011;2463;49.948;8.472;2022-12-18T04:39:56;113.28;;;13.15;;
4895;SDS011;2463;49.948;8.472;2022-12-18T04:42:23;114.93;;;14.55;;
4895;SDS011;2463;49.948;8.472;2022-12-18T04:44:50;108.95;;;13.25;;
4895;SDS011;2463;49.948;8.472;2022-12-18T04:47:16;117.07;;;14.25;;
4895;SDS011;2463;49.948;8.472;2022-12-18T04:49:43;115.57;;;15.70;;
4895;SDS011;2463;49.948;8.472;2022-12-18T04:52:09;111.95;;;12.85;;
4895;SDS011;2463;49.948;8.472;2022-12-18T04:54:36;110.43;;;12.75;;
4895;SDS011;2463;49.948;8.472;2022-12-18T04:57:03;109.10;;;14.15;;
4895;SDS011;2463;49.948;8.472;2022-12-18T04:59:29;106.50;;;12.35;;
4895;SDS011;2463;49.948;8.472;2022-12-18T05:01:56;112.85;;;13.70;;
4895;SDS011;2463;49.948;8.472;2022-12-18T05:04:23;108.85;;;12.95;;
4895;SDS011;2463;49.948;8.472;2022-12-18T05:06:49;116.53;;;13.55;;
4895;SDS011;2463;49.948;8.472;2022-12-18T05:09:16;109.85;;;12.88;;
4895;SDS011;2463;49.948;8.472;2022-12-18T05:11:44;105.80;;;13.20;;
4895;SDS011;2463;49.948;8.472;2022-12-18T05:14:11;107.03;;;12.70;;
4895;SDS011;2463;49.948;8.472;2022-12-18T05:16:38;109.45;;;13.05;;
4895;SDS011;2463;49.948;8.472;2022-12-18T05:19:04;110.70;;;14.40;;
4895;SDS011;2463;49.948;8.472;2022-12-18T05:21:31;107.07;;;14.18;;
4895;SDS011;2463;49.948;8.472;2022-12-18T05:23:58;107.43;;;12.95;;
4895;SDS011;2463;49.948;8.472;2022-12-18T05:26:24;109.45;;;14.88;;
4895;SDS011;2463;49.948;8.472;2022-12-18T05:28:51;108.47;;;13.60;;
4895;SDS011;2463;49.948;8.472;2022-12-18T05:31:18;109.20;;;14.18;;
4895;SDS011;2463;49.948;8.472;2022-12-18T05:33:44;126.68;;;13.90;;
4895;SDS011;2463;49.948;8.472;2022-12-18T05:36:11;108.28;;;13.90;;
4895;SDS011;2463;49.948;8.472;2022-12-18T05:38:38;108.05;;;14.88;;
4895;SDS011;2463;49.948;8.472;2022-12-18T05:41:06;109.80;;;13.13;;
4895;SDS011;2463;49.948;8.472;2022-12-18T05:43:37;110.35;;;13.15;;
4895;SDS011;2463;49.948;8.472;2022-12-18T05:46:06;121.15;;;13.90;;
4895;SDS011;2463;49.948;8.472;2022-12-18T05:48:34;116.35;;;14.05;;
4895;SDS011;2463;49.948;8.472;2022-12-18T05:51:08;113.22;;;13.90;;
4895;SDS011;2463;49.948;8.472;2022-12-18T05:53:37;103.50;;;12.02;;
4895;SDS011;2463;49.948;8.472;2022-12-18T05:56:05;112.97;;;13.77;;
4895;SDS011;2463;49.948;8.472;2022-12-18T05:58:35;102.47;;;14.55;;
4895;SDS011;2463;49.948;8.472;2022-12-18T06:01:10;113.53;;;15.50;;
4895;SDS011;2463;49.948;8.472;2022-12-18T06:03:37;106.20;;;13.20;;
4895;SDS011;2463;49.948;8.472;2022-12-18T06:06:12;109.88;;;14.30;;
4895;SDS011;2463;49.948;8.472;2022-12-18T06:08:47;103.60;;;11.45;;
4895;SDS011;2463;49.948;8.472;2022-12-18T06:11:15;114.47;;;13.18;;
4895;SDS011;2463;49.948;8.472;2022-12-18T06:13:44;113.25;;;13.77;;
4895;SDS011;2463;49.948;8.472;2022-12-18T06:16:11;107.57;;;13.77;;
4895;SDS011;2463;49.948;8.472;2022-12-18T06:18:37;102.43;;;11.80;;
4895;SDS011;2463;49.948;8.472;2022-12-18T06:21:04;104.15;;;13.35;;
4895;SDS011;2463;49.948;8.472;2022-12-18T06:23:31;111.43;;;15.35;;
4895;SDS011;2463;49.948;8.472;2022-12-18T06:25:58;103.40;;;12.13;;
4895;SDS011;2463;49.948;8.472;2022-12-18T06:28:24;112.75;;;14.40;;
4895;SDS011;2463;49.948;8.472;2022-12-18T06:30:51;106.72;;;12.52;;
4895;SDS011;2463;49.948;8.472;2022-12-18T06:33:19;109.30;;;11.98;;
4895;SDS011;2463;49.948;8.472;2022-12-18T06:35:45;107.28;;;12.45;;
4895;SDS011;2463;49.948;8.472;2022-12-18T06:38:12;110.85;;;14.05;;
4895;SDS011;2463;49.948;8.472;2022-12-18T06:40:39;109.20;;;13.90;;
4895;SDS011;2463;49.948;8.472;2022-12-18T06:43:06;112.38;;;14.77;;
4895;SDS011;2463;49.948;8.472;2022-12-18T06:45:32;107.22;;;13.45;;
4895;SDS011;2463;49.948;8.472;2022-12-18T06:47:59;106.50;;;13.10;;
4895;SDS011;2463;49.948;8.472;2022-12-18T06:50:26;108.68;;;12.82;;
4895;SDS011;2463;49.948;8.472;2022-12-18T06:52:53;109.53;;;14.30;;
4895;SDS011;2463;49.948;8.472;2022-12-18T06:55:20;108.28;;;14.23;;
4895;SDS011;2463;49.948;8.472;2022-12-18T06:57:46;106.93;;;13.48;;
4895;SDS011;2463;49.948;8.472;2022-12-18T07:00:13;113.28;;;15.60;;
4895;SDS011;2463;49.948;8.472;2022-12-18T07:02:40;105.72;;;12.63;;
4895;SDS011;2463;49.948;8.472;2022-12-18T07:05:07;114.55;;;15.52;;
4895;SDS011;2463;49.948;8.472;2022-12-18T07:07:36;113.93;;;16.05;;
4895;SDS011;2463;49.948;8.472;2022-12-18T07:10:03;105.65;;;12.90;;
4895;SDS011;2463;49.948;8.472;2022-12-18T07:12:30;104.70;;;13.52;;
4895;SDS011;2463;49.948;8.472;2022-12-18T07:14:56;109.22;;;12.95;;
4895;SDS011;2463;49.948;8.472;2022-12-18T07:17:23;104.07;;;12.10;;
4895;SDS011;2463;49.948;8.472;2022-12-18T07:19:50;105.28;;;14.32;;
4895;SDS011;2463;49.948;8.472;2022-12-18T07:22:16;108.50;;;13.07;;
4895;SDS011;2463;49.948;8.472;2022-12-18T07:24:43;112.35;;;13.00;;
4895;SDS011;2463;49.948;8.472;2022-12-18T07:27:10;107.20;;;14.43;;
4895;SDS011;2463;49.948;8.472;2022-12-18T07:29:36;109.25;;;11.60;;
4895;SDS011;2463;49.948;8.472;2022-12-18T07:32:04;103.47;;;12.40;;
4895;SDS011;2463;49.948;8.472;2022-12-18T07:34:31;107.07;;;13.20;;
4895;SDS011;2463;49.948;8.472;2022-12-18T07:36:58;113.10;;;14.50;;
4895;SDS011;2463;49.948;8.472;2022-12-18T07:39:25;108.00;;;12.40;;
4895;SDS011;2463;49.948;8.472;2022-12-18T07:41:51;108.32;;;13.63;;
4895;SDS011;2463;49.948;8.472;2022-12-18T07:44:37;103.82;;;12.13;;
4895;SDS011;2463;49.948;8.472;2022-12-18T07:47:03;105.07;;;12.13;;
4895;SDS011;2463;49.948;8.472;2022-12-18T07:49:37;108.50;;;14.25;;
4895;SDS011;2463;49.948;8.472;2022-12-18T07:52:03;116.40;;;13.93;;
4895;SDS011;2463;49.948;8.472;2022-12-18T07:54:30;105.10;;;13.23;;
4895;SDS011;2463;49.948;8.472;2022-12-18T07:56:57;110.43;;;14.60;;
4895;SDS011;2463;49.948;8.472;2022-12-18T07:59:23;107.25;;;13.93;;
4895;SDS011;2463;49.948;8.472;2022-12-18T08:01:50;115.40;;;14.13;;
4895;SDS011;2463;49.948;8.472;2022-12-18T08:04:17;107.57;;;14.00;;
4895;SDS011;2463;49.948;8.472;2022-12-18T08:06:43;111.07;;;14.10;;
4895;SDS011;2463;49.948;8.472;2022-12-18T08:09:13;109.45;;;12.68;;
4895;SDS011;2463;49.948;8.472;2022-12-18T08:11:40;106.28;;;13.45;;
4895;SDS011;2463;49.948;8.472;2022-12-18T08:14:06;113.60;;;13.48;;
4895;SDS011;2463;49.948;8.472;2022-12-18T08:16:33;110.10;;;12.20;;
4895;SDS011;2463;49.948;8.472;2022-12-18T08:19:00;108.75;;;12.75;;
4895;SDS011;2463;49.948;8.472;2022-12-18T08:21:28;111.20;;;15.48;;
4895;SDS011;2463;49.948;8.472;2022-12-18T08:23:57;119.13;;;13.85;;
4895;SDS011;2463;49.948;8.472;2022-12-18T08:26:27;114.85;;;15.95;;
4895;SDS011;2463;49.948;8.472;2022-12-18T08:28:55;112.38;;;16.02;;
4895;SDS011;2463;49.948;8.472;2022-12-18T08:31:23;110.72;;;13.93;;
4895;SDS011;2463;49.948;8.472;2022-12-18T08:33:52;124.20;;;15.43;;
4895;SDS011;2463;49.948;8.472;2022-12-18T08:36:20;111.63;;;14.35;;
4895;SDS011;2463;49.948;8.472;2022-12-18T08:38:49;114.68;;;15.88;;
4895;SDS011;2463;49.948;8.472;2022-12-18T08:41:17;112.45;;;13.40;;
4895;SDS011;2463;49.948;8.472;2022-12-18T08:43:44;117.38;;;13.98;;
4895;SDS011;2463;49.948;8.472;2022-12-18T08:46:34;105.50;;;13.85;;
4895;SDS011;2463;49.948;8.472;2022-12-18T08:49:05;113.85;;;15.18;;
4895;SDS011;2463;49.948;8.472;2022-12-18T08:51:33;110.78;;;15.13;;
4895;SDS011;2463;49.948;8.472;2022-12-18T08:54:00;110.03;;;14.82;;
4895;SDS011;2463;49.948;8.472;2022-12-18T08:56:28;106.95;;;14.43;;
4895;SDS011;2463;49.948;8.472;2022-12-18T08:58:56;118.35;;;16.73;;
4895;SDS011;2463;49.948;8.472;2022-12-18T09:01:22;118.72;;;16.17;;
4895;SDS011;2463;49.948;8.472;2022-12-18T09:03:50;119.00;;;14.18;;
4895;SDS011;2463;49.948;8.472;2022-12-18T09:06:17;121.18;;;19.33;;
4895;SDS011;2463;49.948;8.472;2022-12-18T09:08:47;116.80;;;15.35;;
4895;SDS011;2463;49.948;8.472;2022-12-18T09:11:15;113.00;;;15.77;;
4895;SDS011;2463;49.948;8.472;2022-12-18T09:13:49;115.85;;;15.13;;
4895;SDS011;2463;49.948;8.472;2022-12-18T09:16:17;112.22;;;15.32;;
4895;SDS011;2463;49.948;8.472;2022-12-18T09:18:46;123.38;;;15.88;;
4895;SDS011;2463;49.948;8.472;2022-12-18T09:21:14;118.55;;;18.15;;
4895;SDS011;2463;49.948;8.472;2022-12-18T09:23:50;108.90;;;16.05;;
4895;SDS011;2463;49.948;8.472;2022-12-18T09:26:17;121.15;;;16.05;;
4895;SDS011;2463;49.948;8.472;2022-12-18T09:28:44;113.18;;;15.95;;
4895;SDS011;2463;49.948;8.472;2022-12-18T09:31:11;113.95;;;16.05;;
4895;SDS011;2463;49.948;8.472;2022-12-18T09:33:39;113.88;;;15.57;;
4895;SDS011;2463;49.948;8.472;2022-12-18T09:36:07;115.88;;;15.73;;
4895;SDS011;2463;49.948;8.472;2022-12-18T09:38:36;116.95;;;17.00;;
4895;SDS011;2463;49.948;8.472;2022-12-18T09:44:13;116.28;;;16.55;;
4895;SDS011;2463;49.948;8.472;2022-12-18T09:46:49;117.25;;;16.05;;
4895;SDS011;2463;49.948;8.472;2022-12-18T09:49:48;115.35;;;16.95;;
4895;SDS011;2463;49.948;8.472;2022-12-18T09:54:53;123.20;;;20.25;;
4895;SDS011;2463;49.948;8.472;2022-12-18T09:57:26;119.40;;;20.85;;
4895;SDS011;2463;49.948;8.472;2022-12-18T09:59:54;112.28;;;16.90;;
4895;SDS011;2463;49.948;8.472;2022-12-18T10:02:25;122.28;;;21.40;;
4895;SDS011;2463;49.948;8.472;2022-12-18T10:05:02;116.40;;;19.08;;
4895;SDS011;2463;49.948;8.472;2022-12-18T10:07:33;120.05;;;20.20;;
4895;SDS011;2463;49.948;8.472;2022-12-18T10:10:10;116.60;;;19.52;;
4895;SDS011;2463;49.948;8.472;2022-12-18T10:13:08;117.60;;;18.70;;
4895;SDS011;2463;49.948;8.472;2022-12-18T10:18:35;119.53;;;19.10;;
4895;SDS011;2463;49.948;8.472;2022-12-18T10:21:15;116.18;;;19.00;;
4895;SDS011;2463;49.948;8.472;2022-12-18T10:26:40;115.10;;;19.35;;
4895;SDS011;2463;49.948;8.472;2022-12-18T10:29:16;117.55;;;18.95;;
4895;SDS011;2463;49.948;8.472;2022-12-18T10:31:43;124.18;;;20.88;;
4895;SDS011;2463;49.948;8.472;2022-12-18T10:34:11;123.30;;;19.73;;
4895;SDS011;2463;49.948;8.472;2022-12-18T10:36:38;119.25;;;19.30;;
4895;SDS011;2463;49.948;8.472;2022-12-18T10:39:19;123.13;;;20.40;;
4895;SDS011;2463;49.948;8.472;2022-12-18T10:41:52;121.38;;;20.20;;
4895;SDS011;2463;49.948;8.472;2022-12-18T10:44:45;117.38;;;19.10;;
4895;SDS011;2463;49.948;8.472;2022-12-18T10:47:26;124.07;;;19.67;;
4895;SDS011;2463;49.948;8.472;2022-12-18T10:49:53;122.13;;;20.00;;
4895;SDS011;2463;49.948;8.472;2022-12-18T10:52:21;125.53;;;21.08;;
4895;SDS011;2463;49.948;8.472;2022-12-18T10:55:01;126.35;;;20.10;;
4895;SDS011;2463;49.948;8.472;2022-12-18T11:02:51;129.80;;;22.63;;
4895;SDS011;2463;49.948;8.472;2022-12-18T11:05:26;128.75;;;20.23;;
4895;SDS011;2463;49.948;8.472;2022-12-18T11:07:53;127.60;;;20.05;;
4895;SDS011;2463;49.948;8.472;2022-12-18T11:10:21;122.75;;;19.83;;
4895;SDS011;2463;49.948;8.472;2022-12-18T11:13:07;125.18;;;19.52;;
4895;SDS011;2463;49.948;8.472;2022-12-18T11:15:44;129.25;;;20.67;;
4895;SDS011;2463;49.948;8.472;2022-12-18T11:20:56;124.03;;;20.05;;
4895;SDS011;2463;49.948;8.472;2022-12-18T11:23:25;123.70;;;19.25;;
4895;SDS011;2463;49.948;8.472;2022-12-18T11:26:02;125.25;;;21.65;;
4895;SDS011;2463;49.948;8.472;2022-12-18T11:28:37;136.57;;;21.95;;
4895;SDS011;2463;49.948;8.472;2022-12-18T11:34:05;123.97;;;19.42;;
4895;SDS011;2463;49.948;8.472;2022-12-18T11:36:59;125.10;;;19.25;;
4895;SDS011;2463;49.948;8.472;2022-12-18T11:39:31;128.93;;;19.70;;
4895;SDS011;2463;49.948;8.472;2022-12-18T11:44:59;126.40;;;18.63;;
4895;SDS011;2463;49.948;8.472;2022-12-18T11:47:40;128.90;;;21.27;;
4895;SDS011;2463;49.948;8.472;2022-12-18T11:50:44;125.75;;;22.02;;
4895;SDS011;2463;49.948;8.472;2022-12-18T11:53:20;125.30;;;18.65;;
4895;SDS011;2463;49.948;8.472;2022-12-18T12:03:51;130.48;;;19.52;;
4895;SDS011;2463;49.948;8.472;2022-12-18T12:09:12;127.18;;;18.80;;
4895;SDS011;2463;49.948;8.472;2022-12-18T12:25:44;126.40;;;18.90;;
4895;SDS011;2463;49.948;8.472;2022-12-18T12:34:11;127.30;;;18.73;;
4895;SDS011;2463;49.948;8.472;2022-12-18T12:39:45;122.80;;;17.88;;
4895;SDS011;2463;49.948;8.472;2022-12-18T12:42:22;127.32;;;18.83;;
4895;SDS011;2463;49.948;8.472;2022-12-18T12:45:29;125.03;;;16.75;;
4895;SDS011;2463;49.948;8.472;2022-12-18T12:48:02;127.95;;;18.33;;
4895;SDS011;2463;49.948;8.472;2022-12-18T12:50:33;123.25;;;18.10;;
4895;SDS011;2463;49.948;8.472;2022-12-18T12:53:01;126.35;;;18.17;;
4895;SDS011;2463;49.948;8.472;2022-12-18T12:55:36;124.80;;;18.35;;
4895;SDS011;2463;49.948;8.472;2022-12-18T12:58:07;126.65;;;19.55;;
4895;SDS011;2463;49.948;8.472;2022-12-18T13:00:46;127.72;;;16.58;;
4895;SDS011;2463;49.948;8.472;2022-12-18T13:03:52;126.47;;;17.13;;
4895;SDS011;2463;49.948;8.472;2022-12-18T13:06:36;120.15;;;17.33;;
4895;SDS011;2463;49.948;8.472;2022-12-18T13:09:11;132.90;;;19.15;;
4895;SDS011;2463;49.948;8.472;2022-12-18T13:11:42;124.95;;;18.13;;
4895;SDS011;2463;49.948;8.472;2022-12-18T13:14:30;134.15;;;17.70;;
4895;SDS011;2463;49.948;8.472;2022-12-18T13:19:52;122.60;;;17.20;;
4895;SDS011;2463;49.948;8.472;2022-12-18T13:28:03;123.53;;;18.65;;
4895;SDS011;2463;49.948;8.472;2022-12-18T13:30:41;124.15;;;17.45;;
4895;SDS011;2463;49.948;8.472;2022-12-18T13:40:58;119.35;;;16.60;;
4895;SDS011;2463;49.948;8.472;2022-12-18T13:46:23;120.50;;;16.80;;
4895;SDS011;2463;49.948;8.472;2022-12-18T13:51:31;125.43;;;17.00;;
4895;SDS011;2463;49.948;8.472;2022-12-18T13:54:01;129.80;;;18.70;;
4895;SDS011;2463;49.948;8.472;2022-12-18T13:56:32;134.57;;;17.40;;
4895;SDS011;2463;49.948;8.472;2022-12-18T13:59:10;130.18;;;18.60;;
4895;SDS011;2463;49.948;8.472;2022-12-18T14:01:54;124.13;;;17.35;;
4895;SDS011;2463;49.948;8.472;2022-12-18T14:04:25;126.07;;;16.83;;
4895;SDS011;2463;49.948;8.472;2022-12-18T14:07:06;138.43;;;18.50;;
4895;SDS011;2463;49.948;8.472;2022-12-18T14:12:47;123.88;;;15.93;;
4895;SDS011;2463;49.948;8.472;2022-12-18T14:18:12;123.93;;;19.48;;
4895;SDS011;2463;49.948;8.472;2022-12-18T14:20:43;131.68;;;18.27;;
4895;SDS011;2463;49.948;8.472;2022-12-18T14:25:59;127.20;;;16.65;;
4895;SDS011;2463;49.948;8.472;2022-12-18T14:28:31;123.38;;;16.52;;
4895;SDS011;2463;49.948;8.472;2022-12-18T14:30:58;120.80;;;16.00;;
4895;SDS011;2463;49.948;8.472;2022-12-18T14:33:25;130.60;;;16.77;;
4895;SDS011;2463;49.948;8.472;2022-12-18T14:36:01;127.53;;;17.25;;
4895;SDS011;2463;49.948;8.472;2022-12-18T14:38:32;123.88;;;15.50;;
4895;SDS011;2463;49.948;8.472;2022-12-18T14:41:06;124.20;;;17.02;;
4895;SDS011;2463;49.948;8.472;2022-12-18T14:43:36;120.10;;;16.95;;
4895;SDS011;2463;49.948;8.472;2022-12-18T14:46:06;120.53;;;16.98;;
4895;SDS011;2463;49.948;8.472;2022-12-18T14:48:59;128.93;;;17.00;;
4895;SDS011;2463;49.948;8.472;2022-12-18T14:51:30;127.90;;;18.63;;
4895;SDS011;2463;49.948;8.472;2022-12-18T14:54:00;125.80;;;17.70;;
4895;SDS011;2463;49.948;8.472;2022-12-18T14:56:34;126.70;;;16.70;;
4895;SDS011;2463;49.948;8.472;2022-12-18T14:59:03;131.57;;;17.98;;
4895;SDS011;2463;49.948;8.472;2022-12-18T15:01:49;123.57;;;16.50;;
4895;SDS011;2463;49.948;8.472;2022-12-18T15:04:27;124.50;;;16.85;;
4895;SDS011;2463;49.948;8.472;2022-12-18T15:09:30;120.63;;;15.32;;
4895;SDS011;2463;49.948;8.472;2022-12-18T15:11:58;127.07;;;17.20;;
4895;SDS011;2463;49.948;8.472;2022-12-18T15:14:30;126.15;;;15.98;;
4895;SDS011;2463;49.948;8.472;2022-12-18T15:17:05;118.97;;;15.93;;
4895;SDS011;2463;49.948;8.472;2022-12-18T15:20:03;124.10;;;16.45;;
4895;SDS011;2463;49.948;8.472;2022-12-18T15:22:36;127.35;;;17.63;;
4895;SDS011;2463;49.948;8.472;2022-12-18T15:25:03;126.78;;;15.77;;
4895;SDS011;2463;49.948;8.472;2022-12-18T15:27:57;117.75;;;15.23;;
4895;SDS011;2463;49.948;8.472;2022-12-18T15:30:25;119.03;;;14.75;;
4895;SDS011;2463;49.948;8.472;2022-12-18T15:32:52;120.07;;;16.55;;
4895;SDS011;2463;49.948;8.472;2022-12-18T15:35:43;120.03;;;15.20;;
4895;SDS011;2463;49.948;8.472;2022-12-18T15:38:12;124.72;;;17.02;;
4895;SDS011;2463;49.948;8.472;2022-12-18T15:40:39;131.88;;;17.67;;
4895;SDS011;2463;49.948;8.472;2022-12-18T15:43:07;129.85;;;16.88;;
4895;SDS011;2463;49.948;8.472;2022-12-18T15:45:54;120.00;;;16.60;;
4895;SDS011;2463;49.948;8.472;2022-12-18T15:48:21;122.68;;;16.55;;
4895;SDS011;2463;49.948;8.472;2022-12-18T15:50:52;117.80;;;16.17;;
4895;SDS011;2463;49.948;8.472;2022-12-18T15:53:21;120.07;;;16.20;;
4895;SDS011;2463;49.948;8.472;2022-12-18T15:55:48;119.75;;;16.05;;
4895;SDS011;2463;49.948;8.472;2022-12-18T15:58:33;119.95;;;16.75;;
4895;SDS011;2463;49.948;8.472;2022-12-18T16:01:00;127.45;;;17.90;;
4895;SDS011;2463;49.948;8.472;2022-12-18T16:03:28;124.47;;;15.68;;
4895;SDS011;2463;49.948;8.472;2022-12-18T16:05:55;121.20;;;16.30;;
4895;SDS011;2463;49.948;8.472;2022-12-18T16:08:25;121.00;;;15.18;;
4895;SDS011;2463;49.948;8.472;2022-12-18T16:10:51;127.20;;;16.70;;
4895;SDS011;2463;49.948;8.472;2022-12-18T16:13:18;118.97;;;17.55;;
4895;SDS011;2463;49.948;8.472;2022-12-18T16:15:46;123.05;;;15.32;;
4895;SDS011;2463;49.948;8.472;2022-12-18T16:18:13;129.90;;;16.92;;
4895;SDS011;2463;49.948;8.472;2022-12-18T16:20:40;125.50;;;17.15;;
4895;SDS011;2463;49.948;8.472;2022-12-18T16:23:07;114.97;;;15.35;;
4895;SDS011;2463;49.948;8.472;2022-12-18T16:25:34;124.28;;;16.27;;
4895;SDS011;2463;49.948;8.472;2022-12-18T16:28:00;118.50;;;15.70;;
4895;SDS011;2463;49.948;8.472;2022-12-18T16:30:28;128.13;;;17.20;;
4895;SDS011;2463;49.948;8.472;2022-12-18T16:33:03;131.10;;;16.70;;
4895;SDS011;2463;49.948;8.472;2022-12-18T16:35:32;124.05;;;16.38;;
4895;SDS011;2463;49.948;8.472;2022-12-18T16:37:59;122.80;;;15.93;;
4895;SDS011;2463;49.948;8.472;2022-12-18T16:40:26;120.40;;;18.05;;
4895;SDS011;2463;49.948;8.472;2022-12-18T16:42:52;121.40;;;15.15;;
4895;SDS011;2463;49.948;8.472;2022-12-18T16:45:19;125.15;;;17.73;;
4895;SDS011;2463;49.948;8.472;2022-12-18T16:47:46;127.10;;;18.83;;
4895;SDS011;2463;49.948;8.472;2022-12-18T16:50:12;117.85;;;15.73;;
4895;SDS011;2463;49.948;8.472;2022-12-18T16:52:39;118.45;;;15.52;;